Time;durP1;ratioP1;P1;durP2;ratioP2;P2;SDS_P1;SDS_P2;PMS_P1;PMS_P2;Temp;Humidity;BMP_temperature;BMP_pressure;BME280_temperature;BME280_humidity;BME280_pressure;Samples;Min_cycle;Max_cycle;Signal;HPM_P1;HPM_P2
2022/07/02 00:00:05;;;;;;;6.87;2.00;;;17.60;99.90;;;;;;5094815;28;20303;-68
2022/07/02 00:02:34;;;;;;;4.70;2.30;;;17.60;99.90;;;;;;5094850;28;20175;-67
2022/07/02 00:05:05;;;;;;;4.47;2.43;;;17.60;1.00;;;;;;5093531;28;20534;-68
2022/07/02 00:07:31;;;;;;;1.77;1.63;;;17.70;99.90;;;;;;5094683;28;20231;-66
2022/07/02 00:09:58;;;;;;;3.63;2.20;;;17.80;99.90;;;;;;5094722;28;20183;-68
2022/07/02 00:12:27;;;;;;;4.90;1.93;;;17.80;99.90;;;;;;5094904;28;20266;-70
2022/07/02 00:14:55;;;;;;;5.77;2.50;;;17.90;99.90;;;;;;5094695;28;20213;-68
2022/07/02 00:17:23;;;;;;;2.70;1.90;;;17.80;99.90;;;;;;5094827;28;20617;-68
2022/07/02 00:19:49;;;;;;;4.27;1.83;;;17.80;99.90;;;;;;5094770;28;20196;-68
2022/07/02 00:22:16;;;;;;;3.07;1.87;;;17.80;99.90;;;;;;5094120;28;20172;-68
2022/07/02 00:24:42;;;;;;;3.60;1.60;;;17.80;99.90;;;;;;5094569;28;20164;-67
2022/07/02 00:27:13;;;;;;;3.43;2.00;;;17.90;99.90;;;;;;5094907;28;20646;-67
2022/07/02 00:29:54;;;;;;;4.03;1.57;;;17.90;99.90;;;;;;5094428;28;20172;-68
2022/07/02 00:32:19;;;;;;;4.67;1.63;;;17.90;99.90;;;;;;5094450;28;20262;-68
2022/07/02 00:34:46;;;;;;;4.50;1.40;;;17.90;99.90;;;;;;5093987;28;20295;-68
2022/07/02 00:37:13;;;;;;;2.20;2.00;;;17.80;99.90;;;;;;5093918;28;20665;-68
2022/07/02 00:39:40;;;;;;;4.90;1.83;;;17.80;99.90;;;;;;5094046;28;20195;-68
2022/07/02 00:42:07;;;;;;;3.60;2.00;;;17.80;99.90;;;;;;5093821;28;20168;-68
2022/07/02 00:44:33;;;;;;;4.23;1.90;;;17.80;99.90;;;;;;5093977;28;20174;-67
2022/07/02 00:47:04;;;;;;;4.37;2.23;;;17.80;1.00;;;;;;5094176;28;20164;-68
2022/07/02 00:49:35;;;;;;;4.00;1.83;;;17.80;1.00;;;;;;5093985;28;20534;-67
2022/07/02 00:52:02;;;;;;;3.50;2.00;;;17.80;1.00;;;;;;5093573;28;20176;-67
2022/07/02 00:54:28;;;;;;;4.50;2.13;;;17.70;1.00;;;;;;5093756;28;20207;-67
2022/07/02 00:56:54;;;;;;;3.47;2.00;;;17.80;1.00;;;;;;5093847;28;20167;-67
2022/07/02 00:59:24;;;;;;;3.13;2.00;;;17.80;1.00;;;;;;5093573;28;20529;-68
2022/07/02 01:01:50;;;;;;;5.07;1.90;;;17.80;1.00;;;;;;5093633;28;20270;-67
2022/07/02 01:04:16;;;;;;;5.13;1.93;;;17.70;1.00;;;;;;5093608;28;20179;-67
2022/07/02 01:06:43;;;;;;;5.77;2.03;;;17.70;1.00;;;;;;5093512;28;20213;-67
2022/07/02 01:12:02;;;;;;;5.27;2.13;;;17.70;1.00;;;;;;5093771;28;20217;-67
2022/07/02 01:14:29;;;;;;;5.73;2.13;;;17.70;1.00;;;;;;5093530;28;20226;-67
2022/07/02 01:16:56;;;;;;;3.43;2.13;;;17.60;1.00;;;;;;5093469;28;20750;-67
2022/07/02 01:19:23;;;;;;;3.23;2.13;;;17.50;1.00;;;;;;5093417;28;20224;-67
2022/07/02 01:22:10;;;;;;;4.10;2.17;;;17.50;1.00;;;;;;5093168;28;20169;-67
2022/07/02 01:24:36;;;;;;;2.70;2.03;;;17.50;1.00;;;;;;5093134;28;20168;-67
2022/07/02 01:27:02;;;;;;;3.63;2.03;;;17.60;1.00;;;;;;5093424;28;20172;-67
2022/07/02 01:29:28;;;;;;;3.73;2.13;;;17.50;1.00;;;;;;5093334;28;20167;-67
2022/07/02 01:31:54;;;;;;;3.67;1.97;;;17.60;1.00;;;;;;5093730;28;20690;-67
2022/07/02 01:34:19;;;;;;;3.30;2.30;;;17.50;1.00;;;;;;5093306;28;20707;-67
2022/07/02 01:36:45;;;;;;;5.63;2.00;;;17.50;1.00;;;;;;5093002;28;20199;-67
2022/07/02 01:39:10;;;;;;;3.80;1.90;;;17.50;1.00;;;;;;5093468;28;20183;-67
2022/07/02 01:41:39;;;;;;;4.63;2.10;;;17.60;1.00;;;;;;5093205;28;20203;-67
2022/07/02 01:44:08;;;;;;;4.30;2.10;;;17.60;1.00;;;;;;5093278;28;20203;-67
2022/07/02 01:46:34;;;;;;;5.20;2.50;;;17.50;1.00;;;;;;5093323;28;20182;-67
2022/07/02 01:49:00;;;;;;;4.63;2.47;;;17.50;1.00;;;;;;5093242;28;20215;-67
2022/07/02 01:51:26;;;;;;;3.03;2.30;;;17.50;1.00;;;;;;5092883;28;20219;-67
2022/07/02 01:53:51;;;;;;;4.50;2.50;;;17.40;1.00;;;;;;5092901;28;20219;-67
2022/07/02 01:56:18;;;;;;;3.57;2.10;;;17.50;1.00;;;;;;5093295;28;20199;-67
2022/07/02 01:58:43;;;;;;;7.03;2.23;;;17.40;1.00;;;;;;5093054;28;20228;-68
2022/07/02 02:01:10;;;;;;;2.90;1.73;;;17.50;1.00;;;;;;5093024;28;20167;-67
2022/07/02 02:03:36;;;;;;;4.27;2.07;;;17.40;1.00;;;;;;5093105;28;20671;-68
2022/07/02 02:06:01;;;;;;;3.77;2.40;;;17.40;1.00;;;;;;5092897;28;20259;-67
2022/07/02 02:08:27;;;;;;;4.23;2.10;;;17.50;1.00;;;;;;5092836;28;20578;-67
2022/07/02 02:10:53;;;;;;;6.10;2.43;;;17.50;1.00;;;;;;5093158;28;20673;-68
2022/07/02 02:13:18;;;;;;;1.97;1.80;;;17.50;1.00;;;;;;5091803;28;20253;-67
2022/07/02 02:15:44;;;;;;;4.83;2.10;;;17.40;1.00;;;;;;5092939;28;20218;-68
2022/07/02 02:18:09;;;;;;;3.10;1.90;;;17.30;1.00;;;;;;5097349;28;20179;-68
2022/07/02 02:20:35;;;;;;;6.23;2.50;;;17.20;1.00;;;;;;5096883;28;20634;-68
2022/07/02 02:23:04;;;;;;;4.63;2.00;;;17.30;1.00;;;;;;5097130;28;20176;-68
2022/07/02 02:25:32;;;;;;;2.93;1.93;;;17.40;1.00;;;;;;5097218;28;20175;-66
2022/07/02 02:27:59;;;;;;;2.97;2.17;;;17.30;1.00;;;;;;5097010;28;20217;-67
2022/07/02 02:30:25;;;;;;;5.17;2.20;;;17.40;1.00;;;;;;5096994;28;20172;-66
2022/07/02 02:32:51;;;;;;;4.10;2.00;;;17.30;1.00;;;;;;5096639;28;20179;-66
2022/07/02 02:35:17;;;;;;;4.07;1.80;;;17.20;1.00;;;;;;5096679;28;20176;-68
2022/07/02 02:37:42;;;;;;;3.33;2.13;;;17.00;1.00;;;;;;5096956;28;20283;-68
2022/07/02 02:40:08;;;;;;;5.63;2.07;;;16.90;1.00;;;;;;5096855;28;20174;-67
2022/07/02 02:42:34;;;;;;;6.17;2.50;;;16.90;1.00;;;;;;5096717;28;20172;-67
2022/07/02 02:45:00;;;;;;;3.53;2.10;;;16.80;1.00;;;;;;5096770;28;20168;-67
2022/07/02 02:47:26;;;;;;;4.57;2.20;;;16.80;1.00;;;;;;5096412;28;20168;-67
2022/07/02 02:49:51;;;;;;;3.60;1.80;;;16.80;1.00;;;;;;5096474;28;20169;-67
2022/07/02 02:52:17;;;;;;;4.50;1.90;;;16.70;1.00;;;;;;5096345;28;20183;-66
2022/07/02 02:54:43;;;;;;;3.70;2.00;;;16.60;1.00;;;;;;5096422;28;20224;-67
2022/07/02 02:57:09;;;;;;;3.77;1.80;;;16.50;1.00;;;;;;5096659;28;20175;-68
2022/07/02 02:59:34;;;;;;;4.30;2.20;;;16.50;1.00;;;;;;5096362;28;20535;-67
2022/07/02 03:02:00;;;;;;;3.47;1.73;;;16.50;1.00;;;;;;5095948;28;20554;-67
2022/07/02 03:04:26;;;;;;;4.27;2.10;;;16.40;1.00;;;;;;5096100;28;20175;-67
2022/07/02 03:06:51;;;;;;;5.27;2.10;;;16.40;1.00;;;;;;5095916;28;20662;-67
2022/07/02 03:09:17;;;;;;;4.67;1.80;;;16.40;1.00;;;;;;5096177;28;20251;-67
2022/07/02 03:11:42;;;;;;;4.10;2.10;;;16.40;1.00;;;;;;5096069;28;20175;-67
2022/07/02 03:14:08;;;;;;;3.63;2.03;;;16.30;1.00;;;;;;5095781;28;20208;-68
2022/07/02 03:16:34;;;;;;;6.23;2.10;;;16.30;1.00;;;;;;5095726;28;20172;-66
2022/07/02 03:18:59;;;;;;;4.73;2.27;;;16.30;1.00;;;;;;5095808;28;20169;-68
2022/07/02 03:21:25;;;;;;;3.23;2.20;;;16.30;1.00;;;;;;5095873;28;20164;-67
2022/07/02 03:23:51;;;;;;;5.97;1.80;;;16.30;1.00;;;;;;5095812;28;20179;-67
2022/07/02 03:26:16;;;;;;;4.10;2.03;;;16.30;1.00;;;;;;5095767;28;20168;-67
2022/07/02 03:28:42;;;;;;;7.20;2.47;;;16.20;1.00;;;;;;5095710;28;20225;-67
2022/07/02 03:31:07;;;;;;;5.93;2.00;;;16.20;1.00;;;;;;5095561;28;20218;-68
2022/07/02 03:33:33;;;;;;;4.37;2.07;;;16.30;1.00;;;;;;5095136;28;20207;-67
2022/07/02 03:35:59;;;;;;;4.13;2.13;;;16.30;1.00;;;;;;5095670;28;20302;-67
2022/07/02 03:38:24;;;;;;;5.57;2.03;;;16.40;1.00;;;;;;5095733;28;20199;-67
2022/07/02 03:40:50;;;;;;;3.73;2.00;;;16.30;1.00;;;;;;5095383;28;20501;-67
2022/07/02 03:43:16;;;;;;;3.97;2.00;;;16.30;1.00;;;;;;5095214;28;20219;-68
2022/07/02 03:45:42;;;;;;;7.87;1.90;;;16.30;1.00;;;;;;5094951;28;20655;-67
2022/07/02 03:48:08;;;;;;;2.80;1.60;;;16.40;1.00;;;;;;5095059;28;20175;-67
2022/07/02 03:50:37;;;;;;;4.23;1.90;;;16.50;1.00;;;;;;5095230;28;20619;-67
2022/07/02 03:53:04;;;;;;;2.23;2.03;;;16.60;1.00;;;;;;5094934;28;20203;-67
2022/07/02 03:55:29;;;;;;;2.03;1.83;;;16.70;1.00;;;;;;5094891;28;20635;-67
2022/07/02 03:57:55;;;;;;;4.80;2.20;;;16.80;1.00;;;;;;5094595;28;20304;-67
2022/07/02 04:00:21;;;;;;;6.47;2.03;;;17.20;1.00;;;;;;5094612;28;20627;-69
2022/07/02 04:02:46;;;;;;;7.00;1.90;;;17.60;1.00;;;;;;5094874;28;20175;-67
2022/07/02 04:05:12;;;;;;;4.43;2.00;;;18.00;1.00;;;;;;5094837;28;20261;-68
2022/07/02 04:07:38;;;;;;;7.80;2.07;;;18.50;99.90;;;;;;5094326;28;20226;-68
2022/07/02 04:10:04;;;;;;;9.17;2.50;;;19.30;1.00;;;;;;5093229;28;20180;-68
2022/07/02 04:12:29;;;;;;;4.57;2.00;;;19.90;99.90;;;;;;5094902;28;20172;-68
2022/07/02 04:14:55;;;;;;;3.08;2.08;;;20.30;99.90;;;;;;5094299;28;20211;-68
2022/07/02 04:17:20;;;;;;;4.43;2.17;;;20.40;1.00;;;;;;5094332;28;20623;-68
2022/07/02 04:19:46;;;;;;;2.92;2.10;;;19.90;1.00;;;;;;5094825;28;20182;-68
2022/07/02 04:22:12;;;;;;;2.08;1.70;;;19.80;14.80;;;;;;5094534;28;20248;-68
2022/07/02 04:24:37;;;;;;;5.35;1.70;;;20.00;1.00;;;;;;5094693;28;20179;-68
2022/07/02 04:27:03;;;;;;;3.60;2.00;;;20.10;1.00;;;;;;5094369;28;20186;-68
2022/07/02 04:29:29;;;;;;;3.55;1.98;;;19.90;1.00;;;;;;5094078;28;20700;-68
2022/07/02 04:31:54;;;;;;;4.00;2.55;;;19.70;99.90;;;;;;5094432;28;20701;-68
2022/07/02 04:34:20;;;;;;;5.35;1.85;;;19.50;1.00;;;;;;5094269;28;20217;-67
2022/07/02 04:36:45;;;;;;;5.38;1.75;;;19.40;99.90;;;;;;5094210;28;20199;-67
2022/07/02 04:39:11;;;;;;;2.95;2.15;;;19.20;99.90;;;;;;5092531;28;20168;-67
2022/07/02 04:41:37;;;;;;;6.53;2.40;;;19.10;1.00;;;;;;5094237;28;20187;-66
2022/07/02 04:44:02;;;;;;;3.38;2.20;;;18.90;99.90;;;;;;5093792;28;20628;-67
2022/07/02 04:46:28;;;;;;;5.67;2.50;;;18.90;99.90;;;;;;5094115;28;20553;-67
2022/07/02 04:48:53;;;;;;;5.32;2.20;;;19.10;99.90;;;;;;5093986;28;20186;-67
2022/07/02 04:51:19;;;;;;;3.50;1.90;;;20.10;92.30;;;;;;5093337;28;20260;-67
2022/07/02 04:53:45;;;;;;;4.18;2.03;;;21.40;1.00;;;;;;5093589;28;20211;-67
2022/07/02 04:56:10;;;;;;;5.55;2.10;;;22.40;99.90;;;;;;5094098;28;20548;-67
2022/07/02 04:58:36;;;;;;;7.53;3.10;;;22.90;1.00;;;;;;5093326;28;20176;-67
2022/07/02 05:01:01;;;;;;;2.88;2.10;;;23.50;1.00;;;;;;5093850;28;20179;-67
2022/07/02 05:03:27;;;;;;;5.03;1.70;;;24.10;1.00;;;;;;5093555;28;20179;-68
2022/07/02 05:05:53;;;;;;;2.75;1.58;;;24.90;1.00;;;;;;5093655;28;20164;-67
2022/07/02 05:08:26;;;;;;;3.58;1.63;;;26.30;99.90;;;;;;5093432;28;20250;-67
2022/07/02 05:10:52;;;;;;;1.70;1.60;;;26.70;99.90;;;;;;5093808;28;20187;-69
2022/07/02 05:13:18;;;;;;;2.90;1.75;;;27.00;99.90;;;;;;5093356;28;20203;-69
2022/07/02 05:15:45;;;;;;;2.20;1.67;;;27.80;99.90;;;;;;5093479;28;20172;-69
2022/07/02 05:18:11;;;;;;;1.98;1.65;;;29.00;99.90;;;;;;5092433;28;20184;-69
2022/07/02 05:20:37;;;;;;;3.60;1.60;;;30.20;99.90;;;;;;5093600;28;20203;-70
2022/07/02 05:23:02;;;;;;;3.63;1.75;;;30.50;99.90;;;;;;5093375;28;20262;-68
2022/07/02 05:25:28;;;;;;;2.00;1.50;;;31.80;99.90;;;;;;5093773;28;20217;-68
2022/07/02 05:27:53;;;;;;;3.42;1.50;;;31.20;99.70;;;;;;5093065;28;20659;-69
2022/07/02 05:30:19;;;;;;;2.55;1.08;;;31.50;95.10;;;;;;5093465;28;20171;-70
2022/07/02 05:32:45;;;;;;;2.50;1.33;;;32.10;84.30;;;;;;5093540;28;20631;-70
2022/07/02 05:35:10;;;;;;;3.97;1.50;;;32.30;74.40;;;;;;5093411;28;20203;-71
2022/07/02 05:37:36;;;;;;;2.90;1.40;;;33.20;61.30;;;;;;5093354;28;20179;-70
2022/07/02 05:40:02;;;;;;;3.70;1.60;;;33.00;50.60;;;;;;5093437;28;20623;-70
2022/07/02 05:42:28;;;;;;;1.42;1.20;;;33.70;50.20;;;;;;5093020;28;20229;-71
2022/07/02 05:44:53;;;;;;;1.50;1.15;;;33.80;41.70;;;;;;5093436;28;20164;-71
2022/07/02 05:47:19;;;;;;;2.75;1.30;;;34.40;31.20;;;;;;5093283;28;20251;-70
2022/07/02 05:49:44;;;;;;;2.25;1.23;;;34.20;26.40;;;;;;5092123;28;20233;-70
2022/07/02 05:52:10;;;;;;;1.73;1.23;;;34.10;39.20;;;;;;5092555;28;20187;-69
2022/07/02 05:54:36;;;;;;;3.45;1.20;;;34.10;19.20;;;;;;5092948;28;20207;-70
2022/07/02 05:57:01;;;;;;;1.33;0.88;;;34.60;16.00;;;;;;5092810;28;20171;-70
2022/07/02 05:59:27;;;;;;;1.17;0.95;;;34.70;11.70;;;;;;5092695;28;20170;-69
2022/07/02 06:01:53;;;;;;;4.53;1.00;;;34.40;11.00;;;;;;5093006;28;20581;-69
2022/07/02 06:04:18;;;;;;;1.15;0.93;;;34.60;9.20;;;;;;5093115;28;20176;-69
2022/07/02 06:09:28;;;;;;;1.35;1.10;;;35.20;3.90;;;;;;5093561;28;20195;-70
2022/07/02 06:11:53;;;;;;;2.13;0.90;;;34.70;1.30;;;;;;5092534;28;20635;-70
2022/07/02 06:14:19;;;;;;;2.40;0.98;;;35.00;1.30;;;;;;5091474;28;20239;-71
2022/07/02 06:16:44;;;;;;;2.00;1.30;;;34.90;1.00;;;;;;5092744;28;20205;-69
2022/07/02 06:19:10;;;;;;;2.47;1.13;;;34.90;1.00;;;;;;5092692;28;20176;-70
2022/07/02 06:21:36;;;;;;;1.35;1.10;;;35.00;1.00;;;;;;5092790;28;20170;-70
2022/07/02 06:24:02;;;;;;;2.30;1.30;;;35.40;1.00;;;;;;5092680;28;20234;-70
2022/07/02 06:26:27;;;;;;;2.50;1.08;;;35.30;1.00;;;;;;5090792;28;20531;-72
2022/07/02 06:28:53;;;;;;;1.65;1.17;;;35.70;1.00;;;;;;5092691;28;20225;-71
2022/07/02 06:31:18;;;;;;;1.63;1.02;;;35.00;1.00;;;;;;5092822;28;20164;-71
2022/07/02 06:33:44;;;;;;;1.98;0.93;;;34.30;1.00;;;;;;5092783;28;20252;-71
2022/07/02 06:36:14;;;;;;;1.27;0.95;;;34.60;1.00;;;;;;5092634;28;20472;-70
2022/07/02 06:38:39;;;;;;;2.90;1.35;;;34.80;1.00;;;;;;5091351;28;20505;-70
2022/07/02 06:43:50;;;;;;;1.30;1.17;;;34.90;1.00;;;;;;5092898;28;20190;-70
2022/07/02 06:46:15;;;;;;;1.75;1.20;;;35.50;1.00;;;;;;5092602;28;20172;-70
2022/07/02 06:48:41;;;;;;;3.72;1.20;;;35.00;1.00;;;;;;5092037;28;20183;-70
2022/07/02 06:51:06;;;;;;;2.40;1.00;;;35.50;1.00;;;;;;5092546;28;20251;-70
2022/07/02 06:53:32;;;;;;;1.10;0.90;;;35.30;1.00;;;;;;5092422;28;20212;-71
2022/07/02 06:55:58;;;;;;;1.17;1.08;;;35.10;1.00;;;;;;5092007;28;20214;-70
2022/07/02 06:58:24;;;;;;;1.02;0.70;;;34.30;1.00;;;;;;5092158;28;20662;-71
2022/07/02 07:00:49;;;;;;;2.10;0.95;;;34.70;1.00;;;;;;5092320;28;20274;-71
2022/07/02 07:03:15;;;;;;;2.83;1.05;;;33.90;1.00;;;;;;5095525;28;20168;-71
2022/07/02 07:05:46;;;;;;;2.67;1.00;;;31.60;1.00;;;;;;5096226;28;20639;-71
2022/07/02 07:08:12;;;;;;;1.40;1.00;;;30.90;1.00;;;;;;5095581;28;20733;-70
2022/07/02 07:10:37;;;;;;;0.95;0.80;;;30.10;1.00;;;;;;5095740;28;20259;-70
2022/07/02 07:13:03;;;;;;;1.50;0.73;;;30.40;1.00;;;;;;5095719;28;20179;-70
2022/07/02 07:15:28;;;;;;;1.98;0.90;;;30.90;1.00;;;;;;5096200;28;20171;-71
2022/07/02 07:17:54;;;;;;;1.40;0.70;;;31.00;1.00;;;;;;5095667;28;20217;-72
2022/07/02 07:20:26;;;;;;;2.45;1.00;;;31.40;1.00;;;;;;5095271;28;20172;-72
2022/07/02 07:22:53;;;;;;;1.33;0.70;;;32.20;1.00;;;;;;5095279;28;20156;-72
2022/07/02 07:25:19;;;;;;;3.28;0.90;;;31.70;1.00;;;;;;5095437;28;20199;-71
2022/07/02 07:27:45;;;;;;;2.28;1.20;;;31.50;1.00;;;;;;5095732;28;20642;-71
2022/07/02 07:30:11;;;;;;;1.98;1.13;;;32.00;1.00;;;;;;5095317;28;20192;-71
2022/07/02 07:32:37;;;;;;;2.55;1.02;;;32.30;1.00;;;;;;5095392;28;20188;-72
2022/07/02 07:35:04;;;;;;;1.48;1.23;;;33.50;1.00;;;;;;5094145;28;20220;-72
2022/07/02 07:37:29;;;;;;;2.75;1.25;;;34.10;1.00;;;;;;5095196;28;20171;-72
2022/07/02 07:39:55;;;;;;;1.77;1.17;;;33.60;1.00;;;;;;5095135;28;20175;-72
2022/07/02 07:42:22;;;;;;;3.15;1.38;;;31.90;1.00;;;;;;5095123;28;20175;-71
2022/07/02 07:44:51;;;;;;;2.22;1.65;;;30.70;1.00;;;;;;5095402;28;20160;-71
2022/07/02 07:47:16;;;;;;;1.88;1.77;;;31.60;1.00;;;;;;5095105;28;20164;-71
2022/07/02 07:49:42;;;;;;;2.85;1.33;;;31.50;1.00;;;;;;5094498;28;20168;-71
2022/07/02 07:52:08;;;;;;;5.18;1.58;;;31.50;1.00;;;;;;5094442;28;20187;-72
2022/07/02 07:54:34;;;;;;;2.17;1.10;;;32.00;1.00;;;;;;5095309;28;20207;-71
2022/07/02 07:56:59;;;;;;;2.80;1.30;;;32.50;1.00;;;;;;5095428;28;20529;-71
2022/07/02 07:59:25;;;;;;;2.17;1.50;;;32.30;1.00;;;;;;5094056;28;20255;-71
2022/07/02 08:01:51;;;;;;;2.90;1.85;;;34.00;1.00;;;;;;5094986;28;20175;-72
2022/07/02 08:04:16;;;;;;;2.50;1.52;;;34.10;1.00;;;;;;5094885;28;20215;-72
2022/07/02 08:06:42;;;;;;;1.40;1.30;;;33.90;1.00;;;;;;5094103;28;20605;-72
2022/07/02 08:09:08;;;;;;;2.30;1.40;;;32.90;1.00;;;;;;5094607;28;20223;-71
2022/07/02 08:11:33;;;;;;;1.00;1.00;;;31.30;1.00;;;;;;5094325;28;20168;-71
2022/07/02 08:13:59;;;;;;;2.58;1.50;;;32.00;1.00;;;;;;5093703;28;20206;-71
2022/07/02 08:16:25;;;;;;;2.40;1.15;;;33.30;1.00;;;;;;5094837;28;20191;-71
2022/07/02 08:18:50;;;;;;;1.15;1.13;;;33.40;1.00;;;;;;5094145;28;20183;-71
2022/07/02 08:21:16;;;;;;;5.47;1.23;;;33.40;1.00;;;;;;5093690;28;20221;-71
2022/07/02 08:23:42;;;;;;;2.63;1.15;;;34.00;1.00;;;;;;5094684;28;20266;-72
2022/07/02 08:26:07;;;;;;;5.60;1.25;;;34.10;1.00;;;;;;5094464;28;20217;-71
2022/07/02 08:28:33;;;;;;;1.58;1.20;;;34.20;1.00;;;;;;5094000;28;20244;-71
2022/07/02 08:30:59;;;;;;;1.42;1.15;;;33.90;1.00;;;;;;5094600;28;20179;-71
2022/07/02 08:33:25;;;;;;;1.33;1.20;;;33.20;1.00;;;;;;5094274;28;20670;-71
2022/07/02 08:35:50;;;;;;;2.33;1.35;;;33.30;1.00;;;;;;5094160;28;20539;-71
2022/07/02 08:38:16;;;;;;;2.63;1.20;;;33.50;1.00;;;;;;5093334;28;20247;-72
2022/07/02 08:40:43;;;;;;;3.22;1.40;;;33.40;1.00;;;;;;5094071;28;20172;-71
2022/07/02 08:43:14;;;;;;;2.22;1.40;;;32.20;1.00;;;;;;5094354;28;20163;-70
2022/07/02 08:45:44;;;;;;;2.75;1.45;;;31.20;1.00;;;;;;5094177;28;20178;-71
2022/07/02 08:48:10;;;;;;;3.53;1.35;;;31.10;1.00;;;;;;5093751;28;20168;-71
2022/07/02 08:50:37;;;;;;;3.85;1.63;;;31.80;1.00;;;;;;5092786;28;20229;-70
2022/07/02 08:53:04;;;;;;;2.58;1.80;;;32.90;1.00;;;;;;5092807;28;20188;-71
2022/07/02 08:55:33;;;;;;;3.90;1.65;;;33.20;1.00;;;;;;5094136;28;20687;-71
2022/07/02 08:57:59;;;;;;;1.92;1.63;;;32.20;1.00;;;;;;5092596;28;20175;-70
2022/07/02 09:00:26;;;;;;;1.95;1.48;;;30.90;1.00;;;;;;5093094;28;20163;-70
2022/07/02 09:02:53;;;;;;;5.28;2.20;;;31.40;1.00;;;;;;5093539;28;20168;-70
2022/07/02 09:05:21;;;;;;;2.92;1.50;;;32.50;1.00;;;;;;5093582;28;20175;-71
2022/07/02 09:07:47;;;;;;;4.43;1.65;;;32.30;1.00;;;;;;5093498;28;20742;-71
2022/07/02 09:10:17;;;;;;;2.67;1.60;;;31.10;1.00;;;;;;5093250;28;20172;-71
2022/07/02 09:12:43;;;;;;;4.10;1.98;;;30.60;1.00;;;;;;5091821;28;20180;-71
2022/07/02 09:15:11;;;;;;;3.08;1.85;;;31.10;1.00;;;;;;5093467;28;20262;-71
2022/07/02 09:17:40;;;;;;;5.07;1.85;;;31.00;1.00;;;;;;5093300;28;20196;-71
2022/07/02 09:20:06;;;;;;;2.35;1.23;;;31.40;1.00;;;;;;5092840;28;20168;-71
2022/07/02 09:22:35;;;;;;;2.65;0.95;;;32.30;1.00;;;;;;5093498;28;20347;-71
2022/07/02 09:25:16;;;;;;;3.33;1.40;;;33.30;1.00;;;;;;5093192;28;20179;-71
2022/07/02 09:27:42;;;;;;;1.27;1.20;;;34.00;1.00;;;;;;5093406;28;20200;-72
2022/07/02 09:30:10;;;;;;;1.50;0.75;;;33.60;1.00;;;;;;5093030;28;20249;-72
2022/07/02 09:32:40;;;;;;;1.40;0.90;;;32.60;1.00;;;;;;5093352;28;20246;-71
2022/07/02 09:35:06;;;;;;;5.82;1.20;;;32.80;1.00;;;;;;5092370;28;20244;-71
2022/07/02 09:37:32;;;;;;;1.77;1.23;;;31.30;4.20;;;;;;5093423;28;20251;-71
2022/07/02 09:40:01;;;;;;;2.38;1.17;;;30.90;1.00;;;;;;5093057;28;20172;-71
2022/07/02 09:42:31;;;;;;;4.05;1.85;;;31.10;1.00;;;;;;5091460;28;20183;-71
2022/07/02 09:44:59;;;;;;;1.20;1.10;;;30.30;1.00;;;;;;5093264;28;20191;-71
2022/07/02 09:47:39;;;;;;;4.72;0.80;;;30.20;1.00;;;;;;5093231;28;20176;-71
2022/07/02 09:50:12;;;;;;;1.50;1.10;;;29.50;1.00;;;;;;5090967;28;20506;-71
2022/07/02 09:52:53;;;;;;;1.58;1.00;;;28.60;1.00;;;;;;5092785;28;20734;-70
2022/07/02 09:55:37;;;;;;;3.50;1.17;;;27.20;8.80;;;;;;5092598;28;20207;-69
2022/07/02 09:58:04;;;;;;;2.88;1.00;;;26.60;12.10;;;;;;5092957;28;20214;-69
2022/07/02 10:00:31;;;;;;;1.85;1.45;;;26.50;17.20;;;;;;5092234;28;20172;-70
2022/07/02 10:02:59;;;;;;;1.80;1.05;;;26.80;21.50;;;;;;5092082;28;20655;-69
2022/07/02 10:05:27;;;;;;;0.90;0.88;;;26.20;28.80;;;;;;5093042;28;20199;-70
2022/07/02 10:07:58;;;;;;;2.35;0.90;;;26.30;29.50;;;;;;5092541;28;20312;-71
2022/07/02 10:10:50;;;;;;;3.38;1.08;;;27.20;30.70;;;;;;5091725;28;20164;-71
2022/07/02 10:13:16;;;;;;;1.40;1.30;;;28.70;22.80;;;;;;5092379;28;20239;-70
2022/07/02 10:15:57;;;;;;;2.15;1.73;;;30.50;14.30;;;;;;5092700;28;20186;-70
2022/07/02 10:18:24;;;;;;;1.00;0.80;;;30.70;4.80;;;;;;5092147;28;20706;-70
2022/07/02 10:20:52;;;;;;;3.22;1.67;;;30.00;1.80;;;;;;5092142;28;20176;-70
2022/07/02 10:23:19;;;;;;;1.23;1.10;;;30.10;3.00;;;;;;5092128;28;20171;-70
2022/07/02 10:25:46;;;;;;;1.67;1.30;;;29.10;7.10;;;;;;5092310;28;20213;-70
2022/07/02 10:28:12;;;;;;;1.40;1.25;;;29.00;9.00;;;;;;5090626;28;20205;-69
2022/07/02 10:30:38;;;;;;;1.05;1.00;;;28.50;10.70;;;;;;5092394;28;20172;-69
2022/07/02 10:33:52;;;;;;;1.13;0.90;;;27.90;13.20;;;;;;5091126;28;20172;-71
2022/07/02 10:36:19;;;;;;;2.95;1.60;;;27.10;19.60;;;;;;5074793;28;20188;-69
2022/07/02 10:38:55;;;;;;;3.05;1.20;;;27.00;23.80;;;;;;5096820;28;20216;-70
2022/07/02 10:41:29;;;;;;;1.95;1.13;;;27.00;28.10;;;;;;5096058;28;20160;-70
2022/07/02 10:43:59;;;;;;;1.20;1.10;;;27.70;28.40;;;;;;5096551;28;20278;-70
2022/07/02 10:46:27;;;;;;;2.03;1.92;;;28.20;22.40;;;;;;5095254;28;20176;-69
2022/07/02 10:48:58;;;;;;;1.30;1.00;;;28.30;22.40;;;;;;5096010;28;20163;-69
2022/07/02 10:51:27;;;;;;;1.88;1.15;;;28.80;18.90;;;;;;5096030;28;20257;-70
2022/07/02 10:53:59;;;;;;;1.17;0.80;;;29.40;15.70;;;;;;5096176;28;20214;-70
2022/07/02 10:56:24;;;;;;;2.22;0.90;;;29.50;11.80;;;;;;5096210;28;20160;-70
2022/07/02 10:58:50;;;;;;;1.30;1.20;;;29.20;10.80;;;;;;5095481;28;20506;-71
2022/07/02 11:01:21;;;;;;;1.88;1.05;;;29.50;9.50;;;;;;5095660;28;20619;-70
2022/07/02 11:03:52;;;;;;;2.05;1.90;;;29.70;9.60;;;;;;5096034;28;20191;-71
2022/07/02 11:06:26;;;;;;;1.30;1.20;;;29.40;10.30;;;;;;5095344;28;20229;-71
2022/07/02 11:08:59;;;;;;;1.25;1.00;;;29.30;10.30;;;;;;5095581;28;20250;-70
2022/07/02 11:11:36;;;;;;;1.38;0.98;;;29.00;10.80;;;;;;5095318;28;20262;-70
2022/07/02 11:14:12;;;;;;;1.85;1.00;;;28.70;12.10;;;;;;5094876;28;20203;-70
2022/07/02 11:16:46;;;;;;;2.17;1.20;;;28.40;13.20;;;;;;5094890;28;20225;-70
2022/07/02 11:19:12;;;;;;;1.92;1.05;;;28.20;18.40;;;;;;5095452;28;20232;-70
2022/07/02 11:21:39;;;;;;;0.85;0.77;;;27.70;17.70;;;;;;5095431;28;20167;-70
2022/07/02 11:24:06;;;;;;;2.85;0.90;;;26.50;24.40;;;;;;5095385;28;20183;-70
2022/07/02 11:26:31;;;;;;;1.55;1.13;;;26.40;29.90;;;;;;5095140;28;20172;-70
2022/07/02 11:29:04;;;;;;;2.97;1.35;;;26.50;30.40;;;;;;5095125;28;20182;-69
2022/07/02 11:31:34;;;;;;;1.70;1.23;;;27.30;38.60;;;;;;5095695;28;20168;-70
2022/07/02 11:34:00;;;;;;;1.88;0.95;;;27.80;32.30;;;;;;5095316;28;20211;-70
2022/07/02 11:36:26;;;;;;;1.67;1.20;;;27.80;23.80;;;;;;5095450;28;20354;-70
2022/07/02 11:38:53;;;;;;;1.70;1.23;;;27.10;27.80;;;;;;5095227;28;20164;-70
2022/07/02 11:41:27;;;;;;;3.30;1.20;;;26.40;38.50;;;;;;5095023;28;20171;-70
2022/07/02 11:43:55;;;;;;;1.95;1.10;;;27.10;43.60;;;;;;5092938;28;20222;-70
2022/07/02 11:46:23;;;;;;;2.15;1.10;;;27.60;42.80;;;;;;5095557;28;20699;-70
2022/07/02 11:48:50;;;;;;;3.60;1.40;;;27.80;34.80;;;;;;5094428;28;20195;-70
2022/07/02 11:51:19;;;;;;;1.95;1.38;;;28.20;27.80;;;;;;5094675;28;20206;-70
2022/07/02 11:53:58;;;;;;;3.85;2.22;;;28.50;26.30;;;;;;5094788;28;20212;-70
2022/07/02 11:56:24;;;;;;;3.75;3.05;;;28.50;25.10;;;;;;5095257;28;20171;-70
2022/07/02 11:58:49;;;;;;;6.18;5.15;;;28.40;24.10;;;;;;5094061;28;20176;-70
2022/07/02 12:01:31;;;;;;;2.47;1.75;;;28.10;24.10;;;;;;5095012;28;20625;-70
2022/07/02 12:04:03;;;;;;;1.63;1.08;;;27.70;27.30;;;;;;5094755;28;20171;-70
2022/07/02 12:06:34;;;;;;;1.70;1.40;;;27.40;31.40;;;;;;5094698;28;20175;-70
2022/07/02 12:09:00;;;;;;;3.55;1.25;;;27.40;33.90;;;;;;5094101;28;20697;-71
2022/07/02 12:11:26;;;;;;;1.30;0.90;;;27.20;58.30;;;;;;5094523;28;20164;-71
2022/07/02 12:13:54;;;;;;;1.83;0.88;;;26.90;40.50;;;;;;5093950;28;20207;-71
2022/07/02 12:16:22;;;;;;;1.67;1.50;;;26.50;46.60;;;;;;5094975;28;20192;-70
2022/07/02 12:19:04;;;;;;;2.22;0.95;;;26.70;52.70;;;;;;5094894;28;20217;-70
2022/07/02 12:21:37;;;;;;;3.13;2.75;;;26.50;46.80;;;;;;5094005;28;20217;-70
2022/07/02 12:24:07;;;;;;;2.58;1.27;;;26.50;48.70;;;;;;5094058;28;20156;-70
2022/07/02 12:26:33;;;;;;;1.58;0.80;;;26.70;49.10;;;;;;5094314;28;20209;-70
2022/07/02 12:32:02;;;;;;;1.77;0.90;;;26.00;54.60;;;;;;5094371;28;20187;-71
2022/07/02 12:34:54;;;;;;;1.88;1.13;;;25.90;64.70;;;;;;5094681;28;20211;-70
2022/07/02 12:37:37;;;;;;;2.92;1.35;;;25.40;75.60;;;;;;5093542;28;20176;-71
2022/07/02 12:40:20;;;;;;;1.52;1.10;;;25.60;91.90;;;;;;5094142;28;20172;-70
2022/07/02 12:42:55;;;;;;;1.80;0.95;;;25.90;93.30;;;;;;5093607;28;20191;-70
2022/07/02 12:45:30;;;;;;;1.73;1.08;;;26.20;82.00;;;;;;5093905;28;20179;-70
2022/07/02 12:48:02;;;;;;;1.42;1.33;;;26.30;85.50;;;;;;5093898;28;20163;-70
2022/07/02 12:50:30;;;;;;;4.18;1.20;;;26.80;75.40;;;;;;5093299;28;20172;-70
2022/07/02 12:53:00;;;;;;;2.50;1.05;;;26.80;67.00;;;;;;5093608;28;20188;-69
2022/07/02 12:55:32;;;;;;;2.85;0.85;;;27.00;64.30;;;;;;5093941;28;20207;-69
2022/07/02 12:58:00;;;;;;;4.47;2.05;;;26.60;53.60;;;;;;5092713;28;20163;-69
2022/07/02 13:00:27;;;;;;;3.13;1.30;;;26.80;76.80;;;;;;5093308;28;20164;-70
2022/07/02 13:03:04;;;;;;;1.98;1.20;;;26.70;72.60;;;;;;5094299;28;20666;-69
2022/07/02 13:05:31;;;;;;;1.02;0.88;;;26.30;68.10;;;;;;5093421;28;20246;-70